Time;durP1;ratioP1;P1;durP2;ratioP2;P2;SDS_P1;SDS_P2;PMS_P1;PMS_P2;Temp;Humidity;BMP_temperature;BMP_pressure;BME280_temperature;BME280_humidity;BME280_pressure;Samples;Min_cycle;Max_cycle;Signal;HPM_P1;HPM_P2
2023/07/02 00:00:07;;;;;;;8.30;5.30;;;;;;;19.75;61.63;94356.66;5153226;27;20027;-86
2023/07/02 00:02:33;;;;;;;9.95;5.10;;;;;;;19.74;61.97;94363.50;5156800;27;20039;-87
2023/07/02 00:04:59;;;;;;;10.65;5.53;;;;;;;19.74;61.61;94366.31;5158269;27;20050;-87
2023/07/02 00:07:25;;;;;;;9.88;4.93;;;;;;;19.71;61.79;94364.53;5158836;27;20026;-86
2023/07/02 00:09:51;;;;;;;9.07;5.50;;;;;;;19.72;61.97;94365.28;5152122;27;20052;-86
2023/07/02 00:12:17;;;;;;;10.65;5.53;;;;;;;19.67;61.84;94354.91;5151176;27;20015;-87
2023/07/02 00:14:42;;;;;;;6.72;4.38;;;;;;;19.69;62.01;94352.38;5151990;27;20023;-86
2023/07/02 00:17:08;;;;;;;7.57;4.43;;;;;;;19.66;62.21;94356.94;5151147;27;20022;-86
2023/07/02 00:19:33;;;;;;;9.32;4.88;;;;;;;19.65;62.22;94347.03;5152219;27;20599;-86
2023/07/02 00:21:59;;;;;;;6.82;4.90;;;;;;;19.63;61.89;94352.38;5150015;27;20041;-87
2023/07/02 00:24:25;;;;;;;8.25;4.85;;;;;;;19.57;62.04;94344.00;5133340;27;20113;-86
2023/07/02 00:26:50;;;;;;;8.93;4.97;;;;;;;19.61;61.69;94357.69;5150204;27;20118;-86
2023/07/02 00:29:15;;;;;;;8.32;4.78;;;;;;;19.57;61.81;94352.38;5151840;27;20026;-86
2023/07/02 00:31:41;;;;;;;7.82;4.80;;;;;;;19.53;61.83;94367.81;5149902;27;20043;-86
2023/07/02 00:34:06;;;;;;;8.13;4.78;;;;;;;19.48;61.61;94357.44;5151382;27;20532;-86
2023/07/02 00:36:32;;;;;;;6.70;4.68;;;;;;;19.42;61.89;94367.84;5149892;27;20371;-86
2023/07/02 00:38:58;;;;;;;7.25;4.75;;;;;;;19.32;61.65;94379.25;5151337;27;20465;-86
2023/07/02 00:41:23;;;;;;;8.00;4.60;;;;;;;19.21;62.11;94375.69;5150550;27;20019;-87
2023/07/02 00:43:49;;;;;;;7.53;4.90;;;;;;;19.23;62.10;94373.94;5149651;27;20027;-87
2023/07/02 00:46:22;;;;;;;8.15;5.28;;;;;;;19.26;61.93;94374.94;5150141;27;20048;-86
2023/07/02 00:48:49;;;;;;;7.85;4.80;;;;;;;19.29;61.93;94387.88;5150737;27;20033;-86
2023/07/02 00:51:16;;;;;;;8.30;5.32;;;;;;;19.32;61.63;94386.84;5150033;27;20601;-86
2023/07/02 00:53:41;;;;;;;8.27;5.05;;;;;;;19.35;61.86;94392.16;5149585;27;20083;-86
2023/07/02 00:56:07;;;;;;;9.82;5.28;;;;;;;19.39;61.85;94385.59;5151241;27;20026;-86
2023/07/02 00:58:34;;;;;;;8.52;4.90;;;;;;;19.37;62.02;94384.06;5148990;27;20151;-86
2023/07/02 01:01:00;;;;;;;8.48;4.95;;;;;;;19.39;61.59;94371.66;5151158;27;20499;-85
2023/07/02 01:03:26;;;;;;;8.43;4.80;;;;;;;19.42;61.54;94384.56;5150576;27;20046;-86
2023/07/02 01:05:51;;;;;;;10.50;5.43;;;;;;;19.41;61.33;94369.13;5150551;27;20023;-86
2023/07/02 01:08:17;;;;;;;8.77;5.07;;;;;;;19.43;61.43;94369.34;5149280;27;20037;-85
2023/07/02 01:10:42;;;;;;;11.50;4.88;;;;;;;19.44;61.62;94376.44;5150639;27;20102;-85
2023/07/02 01:13:15;;;;;;;6.95;4.40;;;;;;;19.47;61.92;94362.25;5132245;27;20025;-85
2023/07/02 01:15:41;;;;;;;6.68;4.53;;;;;;;19.42;62.15;94351.88;5132171;27;20123;-85
2023/07/02 01:18:07;;;;;;;9.10;4.72;;;;;;;19.40;61.73;94353.66;5131991;27;20761;-85
2023/07/02 01:20:33;;;;;;;9.40;4.90;;;;;;;19.42;61.85;94348.34;5149288;27;20029;-86
2023/07/02 01:23:02;;;;;;;9.38;4.82;;;;;;;19.41;61.99;94353.16;5148934;27;20114;-86
2023/07/02 01:25:29;;;;;;;7.50;4.75;;;;;;;19.43;61.58;94344.28;5149352;27;20046;-86
2023/07/02 01:27:55;;;;;;;8.38;4.45;;;;;;;19.42;61.50;94329.59;5148766;27;20451;-86
2023/07/02 01:30:21;;;;;;;7.88;4.93;;;;;;;19.46;61.51;94334.91;5149198;27;20476;-86
2023/07/02 01:32:46;;;;;;;7.70;4.53;;;;;;;19.47;61.44;94334.38;5148643;27;20109;-85
2023/07/02 01:35:11;;;;;;;10.13;5.30;;;;;;;19.48;62.08;94335.16;5150667;27;20109;-87
2023/07/02 01:37:38;;;;;;;8.05;4.85;;;;;;;19.51;61.78;94334.13;5148874;27;20075;-87
2023/07/02 01:40:07;;;;;;;9.13;4.95;;;;;;;19.50;62.06;94341.00;5150159;27;20026;-85
2023/07/02 01:42:33;;;;;;;10.73;5.20;;;;;;;19.54;61.82;94335.88;5148934;27;20023;-87
2023/07/02 01:44:58;;;;;;;7.72;5.20;;;;;;;19.56;61.96;94333.38;5149790;27;20929;-86
2023/07/02 01:47:24;;;;;;;7.80;4.47;;;;;;;19.57;62.19;94337.66;5148668;27;20019;-84
2023/07/02 01:49:50;;;;;;;8.48;4.78;;;;;;;19.56;62.31;94331.34;5149907;27;20015;-86
2023/07/02 01:52:15;;;;;;;8.82;4.90;;;;;;;19.61;62.27;94332.59;5149417;27;20026;-87
2023/07/02 01:54:41;;;;;;;8.50;5.30;;;;;;;19.63;62.00;94335.66;5148263;27;20087;-86
2023/07/02 01:57:06;;;;;;;9.50;4.85;;;;;;;19.64;62.06;94334.38;5150159;27;20050;-86
2023/07/02 01:59:32;;;;;;;8.55;5.45;;;;;;;19.61;61.44;94333.38;5148543;27;20034;-85
2023/07/02 02:01:57;;;;;;;7.93;4.70;;;;;;;19.50;61.77;94319.44;5149405;27;20489;-86
2023/07/02 02:04:22;;;;;;;9.85;5.40;;;;;;;19.41;62.49;94318.94;5150150;27;20027;-85
2023/07/02 02:06:48;;;;;;;8.50;5.15;;;;;;;19.27;63.00;94315.94;5147859;27;20508;-85
2023/07/02 02:09:13;;;;;;;9.30;5.18;;;;;;;19.23;63.31;94320.25;5149143;27;20033;-87
2023/07/02 02:11:42;;;;;;;8.52;5.00;;;;;;;19.25;63.29;94326.06;5147595;27;20332;-86
2023/07/02 02:14:07;;;;;;;7.93;5.25;;;;;;;19.24;62.88;94321.75;5148637;27;20022;-86
2023/07/02 02:16:36;;;;;;;8.48;5.45;;;;;;;19.22;63.00;94324.31;5149112;27;20090;-86
2023/07/02 02:19:02;;;;;;;11.07;5.20;;;;;;;19.25;63.32;94328.84;5149700;27;20493;-86
2023/07/02 02:21:27;;;;;;;9.10;5.30;;;;;;;19.22;63.12;94311.13;5148232;27;20022;-86
2023/07/02 02:23:53;;;;;;;10.02;5.03;;;;;;;19.15;63.29;94314.41;5147668;27;20511;-86
2023/07/02 02:26:21;;;;;;;11.88;5.68;;;;;;;19.14;63.17;94304.53;5148030;27;20083;-86
2023/07/02 02:28:47;;;;;;;10.65;5.18;;;;;;;19.09;63.14;94306.06;5147626;27;20023;-86
2023/07/02 02:31:12;;;;;;;11.20;5.35;;;;;;;19.10;63.38;94304.81;5130634;27;20018;-86
2023/07/02 02:33:37;;;;;;;8.43;4.97;;;;;;;19.03;63.53;94293.41;5149123;27;20160;-86
2023/07/02 02:36:03;;;;;;;11.68;6.57;;;;;;;19.05;63.56;94302.03;5147726;27;20030;-88
2023/07/02 02:38:28;;;;;;;12.52;5.57;;;;;;;18.90;63.80;94302.28;5147584;27;20539;-88
2023/07/02 02:40:54;;;;;;;14.80;6.53;;;;;;;18.77;64.63;94299.25;5147418;27;20055;-88
2023/07/02 02:43:20;;;;;;;9.48;5.70;;;;;;;18.78;64.63;94295.19;5149138;27;20034;-88
2023/07/02 02:45:46;;;;;;;11.85;5.47;;;;;;;18.75;64.60;94299.75;5147325;27;20046;-88
2023/07/02 02:48:11;;;;;;;9.88;5.63;;;;;;;18.81;64.00;94305.34;5147579;27;20054;-87
2023/07/02 02:50:41;;;;;;;11.70;5.40;;;;;;;18.73;64.64;94309.88;5147421;27;20363;-87
2023/07/02 02:53:07;;;;;;;9.88;5.40;;;;;;;18.64;64.42;94318.44;5147562;27;20102;-86
2023/07/02 02:55:32;;;;;;;10.25;6.25;;;;;;;18.58;64.64;94313.63;5147329;27;20027;-87
2023/07/02 02:57:58;;;;;;;11.73;5.65;;;;;;;18.56;64.87;94313.38;5148581;27;20019;-86
2023/07/02 03:00:23;;;;;;;13.73;5.55;;;;;;;18.58;64.52;94327.56;5148841;27;20105;-86
2023/07/02 03:02:49;;;;;;;12.20;6.00;;;;;;;18.57;64.93;94326.00;5129664;27;20034;-85
2023/07/02 03:05:16;;;;;;;12.50;5.50;;;;;;;18.58;64.97;94315.66;5149125;27;20030;-87
2023/07/02 03:07:41;;;;;;;10.57;5.43;;;;;;;18.55;64.94;94320.19;5149006;27;20113;-86
2023/07/02 03:10:08;;;;;;;8.73;5.47;;;;;;;18.56;64.54;94307.03;5149977;27;20043;-86
2023/07/02 03:12:34;;;;;;;9.05;5.78;;;;;;;18.58;64.31;94305.28;5148926;27;20019;-86
2023/07/02 03:14:59;;;;;;;11.77;6.07;;;;;;;18.51;64.73;94308.53;5146944;27;20103;-84
2023/07/02 03:17:25;;;;;;;11.57;6.20;;;;;;;18.48;64.65;94311.59;5147443;27;20019;-86
2023/07/02 03:19:51;;;;;;;8.90;5.47;;;;;;;18.51;65.00;94324.50;5146906;27;20044;-85
2023/07/02 03:22:16;;;;;;;11.25;6.10;;;;;;;18.52;64.57;94328.78;5149721;27;20472;-86
2023/07/02 03:24:42;;;;;;;9.45;5.50;;;;;;;18.60;64.75;94340.97;5133920;27;20117;-85
2023/07/02 03:27:07;;;;;;;8.95;5.38;;;;;;;18.63;64.79;94339.94;5151292;27;20015;-85
2023/07/02 03:29:37;;;;;;;12.80;6.53;;;;;;;18.66;64.61;94330.59;5151295;27;20378;-86
2023/07/02 03:32:04;;;;;;;9.52;6.03;;;;;;;18.75;64.03;94335.97;5134079;27;20023;-86
2023/07/02 03:34:29;;;;;;;9.73;5.88;;;;;;;18.74;64.16;94333.66;5151132;27;20404;-84
2023/07/02 03:36:54;;;;;;;9.93;5.60;;;;;;;18.78;64.12;94340.50;5133835;27;20018;-86
2023/07/02 03:39:20;;;;;;;13.77;6.55;;;;;;;18.88;64.01;94337.47;5151333;27;20030;-85
2023/07/02 03:41:45;;;;;;;10.88;5.70;;;;;;;18.89;63.95;94344.56;5150805;27;20030;-85
2023/07/02 03:44:11;;;;;;;9.70;5.53;;;;;;;18.93;63.59;94345.09;5152259;27;20027;-84
2023/07/02 03:46:36;;;;;;;12.77;6.50;;;;;;;18.93;63.03;94334.69;5133451;27;20023;-84
2023/07/02 03:49:03;;;;;;;10.70;5.90;;;;;;;18.99;63.14;94334.69;5152264;27;20029;-84
2023/07/02 03:51:28;;;;;;;11.63;5.88;;;;;;;18.99;62.86;94329.88;5151121;27;20022;-84
2023/07/02 03:53:54;;;;;;;11.70;5.63;;;;;;;19.04;63.28;94339.50;5150472;27;20130;-85
2023/07/02 03:56:19;;;;;;;10.13;5.95;;;;;;;19.02;63.24;94331.63;5152387;27;20014;-84
2023/07/02 03:58:45;;;;;;;10.57;6.00;;;;;;;19.00;62.87;94317.47;5133388;27;20014;-85
2023/07/02 04:01:10;;;;;;;10.90;6.50;;;;;;;18.94;62.65;94327.84;5133418;27;20015;-85
2023/07/02 04:03:36;;;;;;;11.90;6.00;;;;;;;18.95;62.60;94336.97;5150366;27;20038;-83
2023/07/02 04:06:01;;;;;;;11.02;6.47;;;;;;;18.85;62.72;94342.03;5150409;27;20079;-85
2023/07/02 04:08:28;;;;;;;11.60;6.60;;;;;;;18.80;62.91;94326.81;5152098;27;20018;-84
2023/07/02 04:10:54;;;;;;;10.90;5.88;;;;;;;18.88;63.05;94343.81;5150348;27;20091;-85
2023/07/02 04:13:20;;;;;;;12.25;6.63;;;;;;;18.96;63.01;94347.59;5151147;27;20019;-85
2023/07/02 04:15:45;;;;;;;11.15;6.68;;;;;;;19.01;63.11;94355.19;5150436;27;20030;-83
2023/07/02 04:18:11;;;;;;;11.07;6.45;;;;;;;19.03;63.13;94355.44;5152335;27;20408;-84
2023/07/02 04:20:39;;;;;;;11.52;6.00;;;;;;;19.08;62.83;94360.25;5133218;27;20406;-84
2023/07/02 04:23:06;;;;;;;11.13;5.95;;;;;;;19.09;62.65;94361.00;5150300;27;20023;-84
2023/07/02 04:25:31;;;;;;;10.65;6.00;;;;;;;19.09;62.85;94358.97;5150406;27;20143;-85
2023/07/02 04:27:58;;;;;;;11.90;6.03;;;;;;;19.15;62.48;94363.78;5150231;27;20106;-84
2023/07/02 04:30:24;;;;;;;12.32;5.20;;;;;;;19.19;62.38;94373.44;5151709;27;20061;-85
2023/07/02 04:32:50;;;;;;;10.70;6.18;;;;;;;19.22;62.44;94374.44;5148858;27;20026;-84
2023/07/02 04:35:15;;;;;;;11.77;6.10;;;;;;;19.23;62.49;94376.72;5151576;27;20022;-84
2023/07/02 04:37:41;;;;;;;15.95;6.75;;;;;;;19.24;62.71;94383.81;5132909;27;20706;-84
2023/07/02 04:40:10;;;;;;;10.15;5.93;;;;;;;19.26;62.59;94380.50;5149643;27;20023;-84
2023/07/02 04:42:39;;;;;;;10.05;6.07;;;;;;;19.29;62.67;94391.41;5150019;27;20031;-85
2023/07/02 04:45:05;;;;;;;9.10;5.47;;;;;;;19.32;62.16;94403.56;5132364;27;20415;-84
2023/07/02 04:47:31;;;;;;;9.80;6.40;;;;;;;19.34;62.32;94398.25;5150239;27;20027;-84
2023/07/02 04:49:58;;;;;;;9.82;5.93;;;;;;;19.39;62.46;94394.72;5149721;27;20022;-84
2023/07/02 04:52:24;;;;;;;14.18;6.78;;;;;;;19.39;62.37;94393.97;5132513;27;20037;-84
2023/07/02 04:54:49;;;;;;;10.55;6.47;;;;;;;19.44;61.91;94398.75;5149208;27;20469;-86
2023/07/02 04:57:15;;;;;;;11.73;6.78;;;;;;;19.51;62.27;94392.69;5149506;27;20022;-83
2023/07/02 04:59:43;;;;;;;11.13;6.10;;;;;;;19.53;62.26;94396.47;5151158;27;20083;-85
2023/07/02 05:02:09;;;;;;;10.20;6.57;;;;;;;19.57;62.26;94391.41;5149629;27;20045;-85
2023/07/02 05:04:35;;;;;;;11.73;6.20;;;;;;;19.60;62.12;94389.63;5132645;27;20027;-84
2023/07/02 05:07:01;;;;;;;11.35;6.13;;;;;;;19.66;61.58;94398.00;5150127;27;20110;-85
2023/07/02 05:09:26;;;;;;;9.25;5.45;;;;;;;19.70;61.33;94402.03;5132478;27;20094;-86
2023/07/02 05:11:52;;;;;;;11.32;6.18;;;;;;;19.70;61.52;94415.97;5149681;27;20026;-84
2023/07/02 05:14:17;;;;;;;10.85;6.25;;;;;;;19.70;61.39;94407.63;5150887;27;20023;-85
2023/07/02 05:16:43;;;;;;;10.57;6.00;;;;;;;19.75;61.47;94403.31;5132104;27;20026;-84
2023/07/02 05:19:09;;;;;;;12.27;7.03;;;;;;;19.78;61.39;94408.59;5149081;27;20035;-84
2023/07/02 05:21:34;;;;;;;13.25;6.50;;;;;;;19.82;61.11;94409.13;5149135;27;20136;-85
2023/07/02 05:24:00;;;;;;;11.82;6.20;;;;;;;19.86;61.32;94404.03;5150452;27;20023;-84
2023/07/02 05:26:26;;;;;;;12.40;6.70;;;;;;;19.86;61.49;94404.03;5150523;27;20034;-84
2023/07/02 05:28:52;;;;;;;9.40;5.82;;;;;;;19.89;61.63;94405.78;5148579;27;20023;-85
2023/07/02 05:31:17;;;;;;;11.32;6.38;;;;;;;19.94;61.39;94407.06;5149379;27;20087;-86
2023/07/02 05:33:43;;;;;;;15.73;7.82;;;;;;;20.03;60.55;94403.25;5149409;27;20050;-85
2023/07/02 05:36:08;;;;;;;15.65;7.45;;;;;;;20.06;60.74;94410.56;5149043;27;20114;-84
2023/07/02 05:38:34;;;;;;;12.93;7.07;;;;;;;20.06;60.30;94416.16;5148941;27;20416;-84
2023/07/02 05:40:59;;;;;;;12.43;6.60;;;;;;;20.07;60.76;94424.03;5148729;27;20469;-84
2023/07/02 05:43:24;;;;;;;12.85;6.65;;;;;;;20.07;60.67;94426.81;5148957;27;20023;-84
2023/07/02 05:45:52;;;;;;;11.77;6.32;;;;;;;20.11;60.65;94424.50;5150091;27;20030;-84
2023/07/02 05:48:17;;;;;;;12.63;6.60;;;;;;;20.12;60.74;94422.47;5149021;27;20440;-84
2023/07/02 05:50:43;;;;;;;12.85;7.30;;;;;;;20.12;60.61;94423.22;5148951;27;20531;-84
2023/07/02 05:53:09;;;;;;;13.43;7.35;;;;;;;20.16;60.61;94429.31;5148993;27;20386;-85
2023/07/02 05:55:35;;;;;;;12.00;6.80;;;;;;;20.22;60.45;94429.31;5148817;27;20504;-84
2023/07/02 05:58:02;;;;;;;10.90;6.80;;;;;;;20.24;60.97;94423.97;5148684;27;20029;-85
2023/07/02 06:00:28;;;;;;;11.05;6.63;;;;;;;20.30;60.62;94430.31;5150361;27;20170;-87
2023/07/02 06:02:53;;;;;;;12.30;6.47;;;;;;;20.40;60.66;94431.50;5149368;27;20042;-84
2023/07/02 06:05:19;;;;;;;9.93;6.63;;;;;;;20.49;60.24;94421.38;5150869;27;20030;-85
2023/07/02 06:07:44;;;;;;;10.07;6.32;;;;;;;20.56;60.15;94418.03;5132702;27;20054;-86
2023/07/02 06:10:10;;;;;;;12.88;7.00;;;;;;;20.59;60.30;94417.00;5149670;27;20030;-85
2023/07/02 06:12:35;;;;;;;13.60;6.43;;;;;;;20.63;59.49;94414.69;5132058;27;20023;-85
2023/07/02 06:15:02;;;;;;;15.57;7.75;;;;;;;20.62;59.25;94415.97;5148615;27;20098;-86
2023/07/02 06:17:27;;;;;;;11.00;6.63;;;;;;;20.67;59.14;94407.56;5131435;27;20032;-85
2023/07/02 06:19:53;;;;;;;12.20;7.35;;;;;;;20.69;59.00;94396.63;5148747;27;20030;-86
2023/07/02 06:22:18;;;;;;;14.88;7.53;;;;;;;20.80;58.75;94392.25;5149947;27;20018;-84
2023/07/02 06:24:43;;;;;;;14.30;7.18;;;;;;;20.83;58.78;94389.19;5148668;27;20042;-84
2023/07/02 06:27:09;;;;;;;11.50;7.10;;;;;;;20.87;58.27;94391.69;5148408;27;20026;-83
2023/07/02 06:29:34;;;;;;;13.73;7.75;;;;;;;20.88;58.24;94396.78;5149618;27;20453;-86
2023/07/02 06:32:00;;;;;;;12.88;6.93;;;;;;;20.98;58.56;94404.84;5147968;27;20027;-85
2023/07/02 06:34:25;;;;;;;11.00;7.28;;;;;;;21.04;58.47;94392.34;5130666;27;20019;-83
2023/07/02 06:36:51;;;;;;;12.60;6.97;;;;;;;21.14;58.52;94395.59;5149051;27;20033;-84
2023/07/02 06:39:16;;;;;;;15.40;8.15;;;;;;;21.28;57.87;94390.94;5149851;27;20015;-85
2023/07/02 06:41:41;;;;;;;10.70;7.20;;;;;;;21.39;57.95;94390.84;5149546;27;20053;-85
2023/07/02 06:44:07;;;;;;;12.20;7.63;;;;;;;21.42;57.20;94365.41;5149577;27;20088;-86
2023/07/02 06:46:32;;;;;;;15.07;8.20;;;;;;;21.54;56.90;94387.66;5149571;27;20034;-85
2023/07/02 06:48:58;;;;;;;12.30;7.68;;;;;;;21.51;56.61;94375.50;5147949;27;20074;-86
2023/07/02 06:51:25;;;;;;;14.18;7.53;;;;;;;21.59;56.83;94386.84;5149774;27;20050;-88
2023/07/02 06:53:51;;;;;;;11.88;7.35;;;;;;;21.67;56.98;94388.53;5149990;27;20023;-87
2023/07/02 06:56:16;;;;;;;23.45;9.25;;;;;;;21.81;56.73;94394.28;5152691;27;20021;-90
2023/07/02 06:58:42;;;;;;;14.15;7.32;;;;;;;21.85;57.04;94397.53;5150430;27;20015;-88
2023/07/02 07:01:08;;;;;;;11.48;6.68;;;;;;;21.99;56.70;94396.38;5148884;27;20462;-90
2023/07/02 07:03:34;;;;;;;12.93;7.40;;;;;;;22.02;56.22;94398.13;5151010;27;20587;-90
2023/07/02 07:06:00;;;;;;;11.38;7.10;;;;;;;22.07;56.11;94393.75;5152529;27;20061;-91
2023/07/02 07:08:25;;;;;;;12.25;6.80;;;;;;;22.10;55.75;94392.72;5155320;27;20015;-90
2023/07/02 07:10:51;;;;;;;14.13;7.35;;;;;;;22.16;55.55;94390.63;5157703;27;20023;-88
2023/07/02 07:13:16;;;;;;;11.57;7.13;;;;;;;22.15;55.87;94389.88;5155127;27;20026;-90
2023/07/02 07:15:42;;;;;;;11.75;7.13;;;;;;;22.22;55.87;94385.72;5152150;27;20033;-90
2023/07/02 07:18:09;;;;;;;13.75;6.95;;;;;;;22.22;55.98;94386.47;5150973;27;20521;-90
2023/07/02 07:20:34;;;;;;;14.52;7.95;;;;;;;22.36;55.34;94380.97;5150610;27;20034;-90
2023/07/02 07:23:02;;;;;;;12.10;7.22;;;;;;;22.42;55.05;94378.84;5152277;27;20023;-89
2023/07/02 07:25:27;;;;;;;12.13;7.10;;;;;;;22.52;55.57;94383.56;5154322;27;20176;-90
2023/07/02 07:27:53;;;;;;;11.40;6.72;;;;;;;22.55;53.69;94381.75;5152020;27;20102;-90
2023/07/02 07:30:22;;;;;;;13.13;7.15;;;;;;;22.47;54.04;94387.19;5152501;27;20022;-90
2023/07/02 07:32:49;;;;;;;9.73;6.22;;;;;;;22.62;54.51;94386.00;5150717;27;20030;-89
2023/07/02 07:35:14;;;;;;;14.95;6.85;;;;;;;22.72;54.44;94381.53;5152827;27;20015;-89
2023/07/02 07:37:40;;;;;;;11.25;7.57;;;;;;;22.87;54.64;94384.63;5151647;27;20113;-89
2023/07/02 07:40:06;;;;;;;11.63;7.00;;;;;;;22.99;54.79;94377.56;5151469;27;20465;-89
2023/07/02 07:42:31;;;;;;;11.55;6.72;;;;;;;23.05;53.43;94378.28;5148881;27;20019;-89
2023/07/02 07:44:56;;;;;;;11.20;6.75;;;;;;;23.15;53.34;94372.25;5148644;27;20023;-89
2023/07/02 07:47:22;;;;;;;10.00;6.45;;;;;;;23.26;53.59;94369.28;5148881;27;20022;-88
2023/07/02 07:49:47;;;;;;;10.13;6.25;;;;;;;23.42;53.70;94375.91;5148653;27;20026;-87
2023/07/02 07:52:13;;;;;;;18.90;6.47;;;;;;;23.44;52.70;94364.91;5149167;27;20034;-89
2023/07/02 07:54:38;;;;;;;9.68;6.70;;;;;;;23.53;53.13;94375.72;5148795;27;20019;-89
2023/07/02 07:57:05;;;;;;;10.98;7.05;;;;;;;23.63;52.89;94376.88;5147607;27;20465;-88
2023/07/02 07:59:30;;;;;;;10.80;7.05;;;;;;;23.79;52.20;94377.84;5146174;27;20118;-89
2023/07/02 08:01:56;;;;;;;11.80;8.10;;;;;;;23.76;51.38;94384.53;5146649;27;20126;-89
2023/07/02 08:04:21;;;;;;;12.57;6.72;;;;;;;23.80;51.89;94380.13;5148699;27;20015;-90
2023/07/02 08:06:47;;;;;;;11.00;6.50;;;;;;;23.91;51.79;94384.75;5148625;27;20107;-89
2023/07/02 08:09:12;;;;;;;12.20;7.50;;;;;;;23.90;51.42;94377.63;5152430;27;20416;-90
2023/07/02 08:11:37;;;;;;;12.07;7.13;;;;;;;23.98;51.31;94377.78;5152692;27;20449;-89
2023/07/02 08:14:03;;;;;;;13.25;7.22;;;;;;;24.05;51.06;94386.28;5153393;27;20019;-90
2023/07/02 08:16:29;;;;;;;11.95;6.78;;;;;;;23.92;50.89;94382.72;5152322;27;20036;-89
2023/07/02 08:18:54;;;;;;;12.93;6.30;;;;;;;24.02;51.57;94383.81;5152163;27;20296;-89
2023/07/02 08:21:19;;;;;;;11.65;7.22;;;;;;;24.08;51.33;94384.44;5152203;27;20031;-91
2023/07/02 08:23:45;;;;;;;10.82;6.07;;;;;;;24.20;51.02;94379.38;5152246;27;20549;-89
2023/07/02 08:26:11;;;;;;;10.27;6.20;;;;;;;24.27;51.10;94373.88;5152100;27;20023;-90
2023/07/02 08:28:38;;;;;;;10.55;6.88;;;;;;;24.32;50.96;94377.88;5152513;27;20023;-91
2023/07/02 08:31:04;;;;;;;12.30;7.47;;;;;;;24.40;50.51;94387.19;5152225;27;20377;-89
2023/07/02 08:33:29;;;;;;;11.90;6.78;;;;;;;24.46;50.57;94373.03;5150984;27;20050;-89
2023/07/02 08:35:55;;;;;;;9.95;6.30;;;;;;;24.55;50.58;94375.41;5150238;27;20108;-89
2023/07/02 08:38:20;;;;;;;10.85;6.75;;;;;;;24.67;50.17;94376.66;5152129;27;20022;-91
2023/07/02 08:40:46;;;;;;;8.43;6.10;;;;;;;24.76;50.45;94375.44;5152082;27;20552;-89
2023/07/02 08:43:11;;;;;;;12.85;6.60;;;;;;;24.87;48.63;94386.44;5152131;27;20031;-91
2023/07/02 08:45:37;;;;;;;8.38;6.20;;;;;;;24.95;49.19;94380.94;5150542;27;20470;-90
2023/07/02 08:48:02;;;;;;;14.95;6.82;;;;;;;25.04;49.26;94372.75;5150466;27;20027;-89
2023/07/02 08:50:28;;;;;;;10.50;6.57;;;;;;;25.18;49.26;94381.19;5152108;27;20483;-90
2023/07/02 08:52:54;;;;;;;9.48;6.40;;;;;;;25.25;48.90;94370.00;5152142;27;20426;-90
2023/07/02 08:55:19;;;;;;;12.55;7.47;;;;;;;25.38;48.66;94369.19;5154423;27;20101;-91
2023/07/02 08:57:49;;;;;;;9.90;6.90;;;;;;;25.40;48.50;94370.16;5160488;27;20054;-95
2023/07/02 09:00:15;;;;;;;14.70;6.60;;;;;;;25.34;47.81;94351.91;5278334;22;20048;-92
2023/07/02 09:02:40;;;;;;;10.50;6.50;;;;;;;25.50;48.10;94364.78;5064861;28;20021;-91
2023/07/02 09:05:06;;;;;;;9.10;6.22;;;;;;;25.60;48.01;94363.00;5067581;28;20037;-87
2023/07/02 09:07:31;;;;;;;11.70;6.57;;;;;;;25.67;47.82;94376.38;5052639;28;20025;-87
2023/07/02 09:09:57;;;;;;;10.48;5.70;;;;;;;25.75;47.36;94365.22;5057641;28;20021;-95
2023/07/02 09:12:26;;;;;;;11.15;6.60;;;;;;;25.95;47.34;94370.06;5064581;28;20118;-96
2023/07/02 09:15:06;;;;;;;9.82;6.47;;;;;;;26.13;47.05;94367.53;5054682;28;20028;-89
2023/07/02 09:17:38;;;;;;;10.70;5.95;;;;;;;26.25;46.57;94363.09;5067389;28;20095;-93
2023/07/02 09:20:08;;;;;;;11.57;6.38;;;;;;;26.47;45.99;94370.97;5052983;28;20032;-91
2023/07/02 09:22:37;;;;;;;7.75;5.53;;;;;;;26.54;45.36;94365.91;5054635;28;20029;-95
2023/07/02 09:25:02;;;;;;;11.98;5.93;;;;;;;26.61;45.20;94363.16;5087969;28;20227;-95
2023/07/02 09:27:36;;;;;;;8.43;6.25;;;;;;;26.67;44.57;94358.09;5057404;28;20428;-89
2023/07/02 09:30:10;;;;;;;12.55;7.18;;;;;;;26.66;45.08;94362.22;5051521;28;20039;-89
2023/07/02 09:32:35;;;;;;;11.88;7.88;;;;;;;26.66;45.01;94353.00;5066029;28;20511;-89
2023/07/02 09:35:01;;;;;;;8.73;6.13;;;;;;;26.65;44.76;94355.06;5047121;28;20021;-90
2023/07/02 09:37:26;;;;;;;13.55;7.18;;;;;;;26.67;44.97;94360.94;5049632;28;20044;-89
2023/07/02 09:39:54;;;;;;;14.15;8.57;;;;;;;26.67;44.80;94354.53;5049217;28;20029;-90
2023/07/02 09:42:20;;;;;;;8.85;6.82;;;;;;;26.76;44.62;94361.69;5048958;28;20021;-92
2023/07/02 09:44:45;;;;;;;8.45;5.88;;;;;;;26.94;43.97;94358.56;5048751;28;20087;-89
2023/07/02 09:47:12;;;;;;;7.82;5.65;;;;;;;27.13;44.03;94366.75;5045212;28;20400;-87
2023/07/02 09:49:39;;;;;;;10.20;6.10;;;;;;;27.20;43.64;94359.59;5044590;28;20018;-89
2023/07/02 09:52:09;;;;;;;8.75;5.72;;;;;;;27.29;43.50;94349.81;5046048;28;20458;-89
2023/07/02 09:54:35;;;;;;;7.05;5.45;;;;;;;27.43;43.03;94356.81;5048291;28;20017;-91
2023/07/02 09:57:01;;;;;;;7.05;5.28;;;;;;;27.36;42.86;94349.09;5048408;28;20071;-93
2023/07/02 09:59:27;;;;;;;7.43;5.20;;;;;;;27.49;43.20;94344.03;5055312;28;20044;-89
2023/07/02 10:01:53;;;;;;;8.40;5.82;;;;;;;27.62;43.13;94351.56;5069259;28;20077;-90
2023/07/02 10:04:19;;;;;;;8.82;5.22;;;;;;;27.78;42.58;94346.69;5068112;28;20036;-91
2023/07/02 10:06:53;;;;;;;14.05;5.75;;;;;;;27.89;42.35;94346.31;5069398;28;20575;-89
2023/07/02 10:09:19;;;;;;;8.98;4.97;;;;;;;28.03;41.83;94341.19;5067623;28;20035;-84
2023/07/02 10:11:45;;;;;;;7.65;4.68;;;;;;;28.16;40.56;94341.00;5069221;28;20029;-89
2023/07/02 10:14:11;;;;;;;11.20;5.15;;;;;;;28.17;40.78;94334.03;5049712;28;20075;-90
2023/07/02 10:16:53;;;;;;;8.15;4.82;;;;;;;28.29;40.02;94335.13;5050426;28;20027;-87
2023/07/02 10:19:19;;;;;;;7.63;5.00;;;;;;;28.44;39.34;94327.94;5068981;28;20491;-89
2023/07/02 10:21:45;;;;;;;7.57;4.50;;;;;;;28.55;38.23;94327.53;5066745;28;20040;-89
2023/07/02 10:24:15;;;;;;;10.52;4.90;;;;;;;28.43;39.90;94323.59;5050614;28;20445;-88
2023/07/02 10:27:03;;;;;;;7.68;5.60;;;;;;;28.46;40.39;94316.81;5049457;28;20035;-91
2023/07/02 10:29:29;;;;;;;6.93;4.65;;;;;;;28.57;39.89;94316.41;5068534;28;20055;-87
2023/07/02 10:31:55;;;;;;;7.45;4.50;;;;;;;28.69;38.65;94314.66;5067613;28;20401;-89
2023/07/02 10:34:31;;;;;;;6.85;4.25;;;;;;;28.69;38.74;94320.31;5067801;28;20079;-91
2023/07/02 10:36:57;;;;;;;8.77;5.00;;;;;;;28.89;39.09;94327.00;5069159;28;20031;-90
2023/07/02 10:39:23;;;;;;;7.18;4.97;;;;;;;29.06;38.76;94320.72;5068604;28;20021;-89
2023/07/02 10:41:49;;;;;;;10.07;5.63;;;;;;;29.08;37.60;94324.47;5052567;28;20047;-90
2023/07/02 10:44:15;;;;;;;10.27;6.55;;;;;;;29.22;36.81;94318.53;5068036;28;20036;-92
2023/07/02 10:46:44;;;;;;;13.27;8.48;;;;;;;29.34;36.49;94311.84;5075686;28;20025;-91
2023/07/02 10:49:11;;;;;;;6.30;4.35;;;;;;;29.53;37.15;94319.09;5054482;28;20035;-91
2023/07/02 10:51:37;;;;;;;5.97;4.38;;;;;;;29.70;36.18;94315.56;5068052;28;20027;-92
2023/07/02 10:54:04;;;;;;;6.38;4.80;;;;;;;29.80;35.48;94310.75;5050862;28;20047;-89
2023/07/02 10:56:31;;;;;;;6.45;4.65;;;;;;;29.83;34.78;94309.63;5071649;28;20150;-92
2023/07/02 10:58:56;;;;;;;7.78;4.32;;;;;;;29.84;33.57;94302.63;5069736;28;20028;-95
2023/07/02 11:01:29;;;;;;;7.40;4.55;;;;;;;29.76;32.96;94305.50;5068255;28;20031;-93
2023/07/02 11:03:55;;;;;;;;;;;;;;;29.67;33.38;94306.16;5070297;28;20058;-94
2023/07/02 11:06:20;;;;;;;6.55;4.50;;;;;;;29.62;33.90;94307.88;5069381;28;20003;-92
2023/07/02 11:08:46;;;;;;;10.23;5.43;;;;;;;29.59;34.31;94309.06;5069329;28;20479;-92
2023/07/02 11:11:11;;;;;;;5.15;3.38;;;;;;;29.51;34.24;94304.75;5070725;28;20070;-92
2023/07/02 11:13:46;;;;;;;6.38;3.25;;;;;;;29.55;34.15;94303.03;5050767;28;20027;-92
2023/07/02 11:16:19;;;;;;;6.65;4.32;;;;;;;29.74;34.70;94308.16;5070340;28;20149;-91
2023/07/02 11:18:44;;;;;;;9.88;5.43;;;;;;;29.68;34.63;94318.97;5069531;28;20509;-92
2023/07/02 11:21:10;;;;;;;9.23;3.90;;;;;;;29.43;36.30;94318.22;5053174;28;20609;-92
2023/07/02 11:23:36;;;;;;;7.13;4.53;;;;;;;29.23;37.32;94326.44;5070229;28;20025;-92